sensor_id;sensor_type;location;lat;lon;timestamp;pressure;altitude;pressure_sealevel;temperature;humidity
38716;BME280;24833;49.324;8.694;2022-11-20T00:01:28;99340.72;;;2.45;100.00
38716;BME280;24833;49.324;8.694;2022-11-20T00:03:57;99344.19;;;2.46;100.00
38716;BME280;24833;49.324;8.694;2022-11-20T00:06:26;99334.47;;;2.46;100.00
38716;BME280;24833;49.324;8.694;2022-11-20T00:08:56;99337.94;;;2.47;100.00
38716;BME280;24833;49.324;8.694;2022-11-20T00:11:25;99337.81;;;2.49;100.00
38716;BME280;24833;49.324;8.694;2022-11-20T00:13:56;99332.38;;;2.50;100.00
38716;BME280;24833;49.324;8.694;2022-11-20T00:16:25;99336.81;;;2.50;100.00
38716;BME280;24833;49.324;8.694;2022-11-20T00:18:53;99336.66;;;2.51;100.00
38716;BME280;24833;49.324;8.694;2022-11-20T00:21:27;99337.63;;;2.50;100.00
38716;BME280;24833;49.324;8.694;2022-11-20T00:23:57;99335.84;;;2.51;100.00
38716;BME280;24833;49.324;8.694;2022-11-20T00:26:26;99336.50;;;2.53;100.00
38716;BME280;24833;49.324;8.694;2022-11-20T00:28:57;99339.81;;;2.55;100.00
38716;BME280;24833;49.324;8.694;2022-11-20T00:31:24;99339.81;;;2.55;100.00
38716;BME280;24833;49.324;8.694;2022-11-20T00:33:52;99342.28;;;2.56;100.00
38716;BME280;24833;49.324;8.694;2022-11-20T00:36:25;99343.13;;;2.57;100.00
38716;BME280;24833;49.324;8.694;2022-11-20T00:38:57;99342.13;;;2.58;100.00
38716;BME280;24833;49.324;8.694;2022-11-20T00:41:27;99349.06;;;2.59;100.00
38716;BME280;24833;49.324;8.694;2022-11-20T00:43:55;99355.03;;;2.61;100.00
38716;BME280;24833;49.324;8.694;2022-11-20T00:46:26;99347.78;;;2.63;100.00
38716;BME280;24833;49.324;8.694;2022-11-20T00:48:54;99350.91;;;2.66;100.00
38716;BME280;24833;49.324;8.694;2022-11-20T00:51:24;99357.69;;;2.69;100.00
38716;BME280;24833;49.324;8.694;2022-11-20T00:53:54;99353.09;;;2.71;100.00
38716;BME280;24833;49.324;8.694;2022-11-20T00:56:21;99348.47;;;2.73;100.00
38716;BME280;24833;49.324;8.694;2022-11-20T00:58:49;99349.31;;;2.73;100.00
38716;BME280;24833;49.324;8.694;2022-11-20T01:01:22;99352.63;;;2.76;100.00
38716;BME280;24833;49.324;8.694;2022-11-20T01:03:53;99352.63;;;2.76;100.00
38716;BME280;24833;49.324;8.694;2022-11-20T01:06:28;99350.97;;;2.75;100.00
38716;BME280;24833;49.324;8.694;2022-11-20T01:08:59;99344.03;;;2.73;100.00
38716;BME280;24833;49.324;8.694;2022-11-20T01:11:33;99342.22;;;2.74;100.00
38716;BME280;24833;49.324;8.694;2022-11-20T01:14:04;99347.50;;;2.74;100.00
38716;BME280;24833;49.324;8.694;2022-11-20T01:16:35;99337.81;;;2.75;100.00
38716;BME280;24833;49.324;8.694;2022-11-20T01:19:05;99334.00;;;2.77;100.00
38716;BME280;24833;49.324;8.694;2022-11-20T01:21:36;99333.03;;;2.78;100.00
38716;BME280;24833;49.324;8.694;2022-11-20T01:24:06;99336.50;;;2.79;100.00
38716;BME280;24833;49.324;8.694;2022-11-20T01:26:37;99340.63;;;2.81;100.00
38716;BME280;24833;49.324;8.694;2022-11-20T01:29:06;99342.13;;;2.84;100.00
38716;BME280;24833;49.324;8.694;2022-11-20T01:31:36;99343.59;;;2.86;100.00
38716;BME280;24833;49.324;8.694;2022-11-20T01:34:06;99348.59;;;2.89;100.00
38716;BME280;24833;49.324;8.694;2022-11-20T01:36:35;99348.25;;;2.92;100.00
38716;BME280;24833;49.324;8.694;2022-11-20T01:39:07;99347.28;;;2.93;100.00
38716;BME280;24833;49.324;8.694;2022-11-20T01:41:36;99333.78;;;2.96;100.00
38716;BME280;24833;49.324;8.694;2022-11-20T01:47:39;99341.53;;;2.98;100.00
38716;BME280;24833;49.324;8.694;2022-11-20T01:50:33;99342.34;;;2.98;100.00
38716;BME280;24833;49.324;8.694;2022-11-20T01:53:08;99337.91;;;2.99;100.00
38716;BME280;24833;49.324;8.694;2022-11-20T01:55:44;99342.19;;;3.00;100.00
38716;BME280;24833;49.324;8.694;2022-11-20T01:58:14;99344.84;;;3.00;100.00
38716;BME280;24833;49.324;8.694;2022-11-20T02:00:42;99334.28;;;3.00;100.00
38716;BME280;24833;49.324;8.694;2022-11-20T02:03:13;99333.31;;;3.01;100.00
38716;BME280;24833;49.324;8.694;2022-11-20T02:08:31;99336.63;;;3.03;100.00
38716;BME280;24833;49.324;8.694;2022-11-20T02:10:59;99320.78;;;3.03;100.00
38716;BME280;24833;49.324;8.694;2022-11-20T02:13:26;99334.81;;;3.04;100.00
38716;BME280;24833;49.324;8.694;2022-11-20T02:16:27;99335.47;;;3.06;100.00
38716;BME280;24833;49.324;8.694;2022-11-20T02:18:58;99332.53;;;3.09;100.00
38716;BME280;24833;49.324;8.694;2022-11-20T02:21:46;99333.34;;;3.09;100.00
38716;BME280;24833;49.324;8.694;2022-11-20T02:24:18;99329.72;;;3.10;100.00
38716;BME280;24833;49.324;8.694;2022-11-20T02:27:09;99339.13;;;3.13;100.00
38716;BME280;24833;49.324;8.694;2022-11-20T02:32:34;99329.09;;;3.16;100.00
38716;BME280;24833;49.324;8.694;2022-11-20T02:37:47;99320.53;;;3.22;100.00
38716;BME280;24833;49.324;8.694;2022-11-20T02:40:15;99308.19;;;3.23;100.00
38716;BME280;24833;49.324;8.694;2022-11-20T02:42:42;99305.38;;;3.24;100.00
38716;BME280;24833;49.324;8.694;2022-11-20T02:45:09;99302.56;;;3.26;100.00
38716;BME280;24833;49.324;8.694;2022-11-20T02:47:36;99309.50;;;3.27;100.00
38716;BME280;24833;49.324;8.694;2022-11-20T02:50:04;99300.44;;;3.30;100.00
38716;BME280;24833;49.324;8.694;2022-11-20T02:52:32;99298.63;;;3.30;100.00
38716;BME280;24833;49.324;8.694;2022-11-20T02:54:59;99303.56;;;3.33;100.00
38716;BME280;24833;49.324;8.694;2022-11-20T02:57:26;99303.44;;;3.35;100.00
38716;BME280;24833;49.324;8.694;2022-11-20T02:59:53;99303.28;;;3.36;100.00
38716;BME280;24833;49.324;8.694;2022-11-20T03:02:20;99297.66;;;3.39;100.00
38716;BME280;24833;49.324;8.694;2022-11-20T03:04:47;99298.34;;;3.41;100.00
38716;BME280;24833;49.324;8.694;2022-11-20T03:07:15;99306.91;;;3.43;100.00
38716;BME280;24833;49.324;8.694;2022-11-20T03:09:42;99300.66;;;3.44;100.00
38716;BME280;24833;49.324;8.694;2022-11-20T03:12:09;99301.31;;;3.46;100.00
38716;BME280;24833;49.324;8.694;2022-11-20T03:14:36;99295.03;;;3.47;100.00
38716;BME280;24833;49.324;8.694;2022-11-20T03:17:03;99286.16;;;3.48;100.00
38716;BME280;24833;49.324;8.694;2022-11-20T03:19:30;99291.09;;;3.51;100.00
38716;BME280;24833;49.324;8.694;2022-11-20T03:21:56;99300.50;;;3.54;100.00
38716;BME280;24833;49.324;8.694;2022-11-20T03:24:24;99295.22;;;3.54;100.00
38716;BME280;24833;49.324;8.694;2022-11-20T03:26:51;99289.63;;;3.57;100.00
38716;BME280;24833;49.324;8.694;2022-11-20T03:29:17;99291.09;;;3.60;100.00
38716;BME280;24833;49.324;8.694;2022-11-20T03:31:45;99288.16;;;3.63;100.00
38716;BME280;24833;49.324;8.694;2022-11-20T03:34:12;99293.09;;;3.66;100.00
38716;BME280;24833;49.324;8.694;2022-11-20T03:36:42;99294.72;;;3.67;100.00
38716;BME280;24833;49.324;8.694;2022-11-20T03:39:09;99291.63;;;3.71;100.00
38716;BME280;24833;49.324;8.694;2022-11-20T03:41:39;99294.91;;;3.73;100.00
38716;BME280;24833;49.324;8.694;2022-11-20T03:44:09;99294.59;;;3.76;100.00
38716;BME280;24833;49.324;8.694;2022-11-20T03:46:37;99300.53;;;3.78;100.00
38716;BME280;24833;49.324;8.694;2022-11-20T03:49:04;99298.72;;;3.79;100.00
38716;BME280;24833;49.324;8.694;2022-11-20T03:51:36;99298.41;;;3.82;100.00
38716;BME280;24833;49.324;8.694;2022-11-20T03:54:06;99293.94;;;3.82;100.00
38716;BME280;24833;49.324;8.694;2022-11-20T03:56:37;99300.88;;;3.83;100.00
38716;BME280;24833;49.324;8.694;2022-11-20T03:59:05;99313.91;;;3.85;100.00
38716;BME280;24833;49.324;8.694;2022-11-20T04:01:35;99315.56;;;3.86;100.00
38716;BME280;24833;49.324;8.694;2022-11-20T04:04:03;99317.19;;;3.87;100.00
38716;BME280;24833;49.324;8.694;2022-11-20T04:06:35;99297.75;;;3.88;100.00
38716;BME280;24833;49.324;8.694;2022-11-20T04:09:03;99300.22;;;3.90;100.00
38716;BME280;24833;49.324;8.694;2022-11-20T04:11:36;99293.13;;;3.90;100.00
38716;BME280;24833;49.324;8.694;2022-11-20T04:14:06;99294.75;;;3.91;100.00
38716;BME280;24833;49.324;8.694;2022-11-20T04:16:35;99283.22;;;3.92;100.00
38716;BME280;24833;49.324;8.694;2022-11-20T04:19:06;99284.84;;;3.93;100.00
38716;BME280;24833;49.324;8.694;2022-11-20T04:21:33;99292.78;;;3.93;100.00
38716;BME280;24833;49.324;8.694;2022-11-20T04:24:00;99298.75;;;3.95;100.00
38716;BME280;24833;49.324;8.694;2022-11-20T04:26:29;99293.47;;;3.95;100.00
38716;BME280;24833;49.324;8.694;2022-11-20T04:28:57;99291.47;;;3.97;100.00
38716;BME280;24833;49.324;8.694;2022-11-20T04:31:28;99291.28;;;3.99;100.00
38716;BME280;24833;49.324;8.694;2022-11-20T04:34:00;99296.41;;;4.00;100.00
38716;BME280;24833;49.324;8.694;2022-11-20T04:36:28;99286.66;;;4.01;100.00
38716;BME280;24833;49.324;8.694;2022-11-20T04:38:59;99284.03;;;4.01;100.00
38716;BME280;24833;49.324;8.694;2022-11-20T04:41:29;99274.13;;;4.03;100.00
38716;BME280;24833;49.324;8.694;2022-11-20T04:43:59;99280.06;;;4.05;100.00
38716;BME280;24833;49.324;8.694;2022-11-20T04:46:33;99267.69;;;4.05;100.00
38716;BME280;24833;49.324;8.694;2022-11-20T04:49:00;99269.34;;;4.06;100.00
38716;BME280;24833;49.324;8.694;2022-11-20T04:51:28;99277.13;;;4.08;100.00
38716;BME280;24833;49.324;8.694;2022-11-20T04:53:55;99282.22;;;4.09;100.00
38716;BME280;24833;49.324;8.694;2022-11-20T04:56:22;99268.84;;;4.11;100.00
38716;BME280;24833;49.324;8.694;2022-11-20T04:58:49;99287.16;;;4.13;100.00
38716;BME280;24833;49.324;8.694;2022-11-20T05:01:22;99269.34;;;4.15;100.00
38716;BME280;24833;49.324;8.694;2022-11-20T05:03:50;99275.28;;;4.17;100.00
38716;BME280;24833;49.324;8.694;2022-11-20T05:06:20;99280.38;;;4.18;100.00
38716;BME280;24833;49.324;8.694;2022-11-20T05:08:47;99275.75;;;4.20;100.00
38716;BME280;24833;49.324;8.694;2022-11-20T05:11:18;99276.25;;;4.24;100.00
38716;BME280;24833;49.324;8.694;2022-11-20T05:13:46;99280.19;;;4.28;100.00
38716;BME280;24833;49.324;8.694;2022-11-20T05:16:18;99289.81;;;4.29;100.00
38716;BME280;24833;49.324;8.694;2022-11-20T05:18:45;99280.69;;;4.31;100.00
38716;BME280;24833;49.324;8.694;2022-11-20T05:21:13;99280.53;;;4.33;100.00
38716;BME280;24833;49.324;8.694;2022-11-20T05:23:41;99282.19;;;4.34;100.00
38716;BME280;24833;49.324;8.694;2022-11-20T05:26:13;99276.75;;;4.35;100.00
38716;BME280;24833;49.324;8.694;2022-11-20T05:28:41;99283.69;;;4.36;100.00
38716;BME280;24833;49.324;8.694;2022-11-20T05:31:10;99285.16;;;4.39;100.00
38716;BME280;24833;49.324;8.694;2022-11-20T05:33:40;99278.03;;;4.40;100.00
38716;BME280;24833;49.324;8.694;2022-11-20T05:36:09;99283.16;;;4.41;100.00
38716;BME280;24833;49.324;8.694;2022-11-20T05:38:36;99277.88;;;4.41;100.00
38716;BME280;24833;49.324;8.694;2022-11-20T05:41:16;99270.78;;;4.42;100.00
38716;BME280;24833;49.324;8.694;2022-11-20T05:43:45;99268.97;;;4.42;100.00
38716;BME280;24833;49.324;8.694;2022-11-20T05:46:16;99275.72;;;4.45;100.00
38716;BME280;24833;49.324;8.694;2022-11-20T05:48:50;99268.63;;;4.45;100.00
38716;BME280;24833;49.324;8.694;2022-11-20T05:51:19;99269.44;;;4.46;100.00
38716;BME280;24833;49.324;8.694;2022-11-20T05:53:46;99271.09;;;4.47;100.00
38716;BME280;24833;49.324;8.694;2022-11-20T05:56:18;99268.28;;;4.48;100.00
38716;BME280;24833;49.324;8.694;2022-11-20T05:58:47;99269.13;;;4.49;100.00
38716;BME280;24833;49.324;8.694;2022-11-20T06:01:18;99270.75;;;4.50;100.00
38716;BME280;24833;49.324;8.694;2022-11-20T06:03:46;99268.94;;;4.50;100.00
38716;BME280;24833;49.324;8.694;2022-11-20T06:06:15;99269.59;;;4.52;100.00
38716;BME280;24833;49.324;8.694;2022-11-20T06:08:44;99270.25;;;4.54;100.00
38716;BME280;24833;49.324;8.694;2022-11-20T06:11:13;99272.72;;;4.56;100.00
38716;BME280;24833;49.324;8.694;2022-11-20T06:13:41;99275.38;;;4.56;100.00
38716;BME280;24833;49.324;8.694;2022-11-20T06:16:10;99275.38;;;4.56;100.00
38716;BME280;24833;49.324;8.694;2022-11-20T06:18:38;99282.31;;;4.57;100.00
38716;BME280;24833;49.324;8.694;2022-11-20T06:21:14;99289.25;;;4.58;100.00
38716;BME280;24833;49.324;8.694;2022-11-20T06:23:42;99280.31;;;4.59;100.00
38716;BME280;24833;49.324;8.694;2022-11-20T06:26:13;99283.59;;;4.61;100.00
38716;BME280;24833;49.324;8.694;2022-11-20T06:28:40;99275.53;;;4.62;100.00
38716;BME280;24833;49.324;8.694;2022-11-20T06:31:09;99279.81;;;4.63;100.00
38716;BME280;24833;49.324;8.694;2022-11-20T06:33:36;99283.47;;;4.62;100.00
38716;BME280;24833;49.324;8.694;2022-11-20T06:36:04;99274.53;;;4.63;100.00
38716;BME280;24833;49.324;8.694;2022-11-20T06:38:37;99278.81;;;4.64;100.00
38716;BME280;24833;49.324;8.694;2022-11-20T06:41:06;99274.34;;;4.65;100.00
38716;BME280;24833;49.324;8.694;2022-11-20T06:43:33;99271.38;;;4.68;100.00
38716;BME280;24833;49.324;8.694;2022-11-20T06:46:00;99264.91;;;4.71;100.00
38716;BME280;24833;49.324;8.694;2022-11-20T06:48:28;99266.56;;;4.72;100.00
38716;BME280;24833;49.324;8.694;2022-11-20T06:50:56;99268.03;;;4.74;100.00
38716;BME280;24833;49.324;8.694;2022-11-20T06:53:24;99264.25;;;4.77;100.00
38716;BME280;24833;49.324;8.694;2022-11-20T06:55:52;99266.53;;;4.80;100.00
38716;BME280;24833;49.324;8.694;2022-11-20T06:58:19;99277.59;;;4.83;100.00
38716;BME280;24833;49.324;8.694;2022-11-20T07:00:46;99275.59;;;4.85;100.00
38716;BME280;24833;49.324;8.694;2022-11-20T07:03:13;99279.72;;;4.88;100.00
38716;BME280;24833;49.324;8.694;2022-11-20T07:05:40;99280.38;;;4.90;100.00
38716;BME280;24833;49.324;8.694;2022-11-20T07:08:08;99281.03;;;4.92;100.00
38716;BME280;24833;49.324;8.694;2022-11-20T07:10:35;99274.75;;;4.93;100.00
38716;BME280;24833;49.324;8.694;2022-11-20T07:13:02;99282.34;;;4.96;100.00
38716;BME280;24833;49.324;8.694;2022-11-20T07:15:30;99281.53;;;4.96;100.00
38716;BME280;24833;49.324;8.694;2022-11-20T07:18:00;99287.28;;;4.99;100.00
38716;BME280;24833;49.324;8.694;2022-11-20T07:20:28;99282.00;;;4.99;100.00
38716;BME280;24833;49.324;8.694;2022-11-20T07:22:57;99282.63;;;5.01;100.00
38716;BME280;24833;49.324;8.694;2022-11-20T07:25:25;99292.25;;;5.02;100.00
38716;BME280;24833;49.324;8.694;2022-11-20T07:27:57;99296.53;;;5.03;100.00
38716;BME280;24833;49.324;8.694;2022-11-20T07:30:24;99295.53;;;5.04;100.00
38716;BME280;24833;49.324;8.694;2022-11-20T07:32:52;99291.06;;;5.05;100.00
38716;BME280;24833;49.324;8.694;2022-11-20T07:35:20;99294.53;;;5.05;100.00
38716;BME280;24833;49.324;8.694;2022-11-20T07:37:47;99289.06;;;5.07;100.00
38716;BME280;24833;49.324;8.694;2022-11-20T07:40:16;99282.63;;;5.09;100.00
38716;BME280;24833;49.324;8.694;2022-11-20T07:42:51;99286.09;;;5.10;100.00
38716;BME280;24833;49.324;8.694;2022-11-20T07:45:20;99282.25;;;5.12;100.00
38716;BME280;24833;49.324;8.694;2022-11-20T07:47:47;99286.41;;;5.15;100.00
38716;BME280;24833;49.324;8.694;2022-11-20T07:50:14;99292.34;;;5.17;100.00
38716;BME280;24833;49.324;8.694;2022-11-20T07:52:42;99293.81;;;5.19;100.00
38716;BME280;24833;49.324;8.694;2022-11-20T07:55:10;99284.88;;;5.20;100.00
38716;BME280;24833;49.324;8.694;2022-11-20T07:57:37;99297.78;;;5.24;100.00
38716;BME280;24833;49.324;8.694;2022-11-20T08:00:06;99296.41;;;5.28;100.00
38716;BME280;24833;49.324;8.694;2022-11-20T08:02:42;99303.00;;;5.32;100.00
38716;BME280;24833;49.324;8.694;2022-11-20T08:05:10;99302.50;;;5.36;100.00
38716;BME280;24833;49.324;8.694;2022-11-20T08:07:39;99295.03;;;5.40;100.00
38716;BME280;24833;49.324;8.694;2022-11-20T08:10:08;99300.81;;;5.43;100.00
38716;BME280;24833;49.324;8.694;2022-11-20T08:12:35;99301.28;;;5.47;100.00
38716;BME280;24833;49.324;8.694;2022-11-20T08:15:21;99305.22;;;5.51;100.00
38716;BME280;24833;49.324;8.694;2022-11-20T08:17:48;99303.22;;;5.53;100.00
38716;BME280;24833;49.324;8.694;2022-11-20T08:20:35;99305.53;;;5.56;100.00
38716;BME280;24833;49.324;8.694;2022-11-20T08:23:05;99307.81;;;5.59;100.00
38716;BME280;24833;49.324;8.694;2022-11-20T08:25:34;99309.13;;;5.63;100.00
38716;BME280;24833;49.324;8.694;2022-11-20T08:28:05;99308.13;;;5.64;100.00
38716;BME280;24833;49.324;8.694;2022-11-20T08:30:46;99314.72;;;5.68;100.00
38716;BME280;24833;49.324;8.694;2022-11-20T08:33:13;99311.09;;;5.69;100.00
38716;BME280;24833;49.324;8.694;2022-11-20T08:35:40;99313.38;;;5.72;100.00
38716;BME280;24833;49.324;8.694;2022-11-20T08:38:08;99312.03;;;5.77;100.00
38716;BME280;24833;49.324;8.694;2022-11-20T08:40:35;99324.91;;;5.80;100.00
38716;BME280;24833;49.324;8.694;2022-11-20T08:43:02;99328.38;;;5.80;100.00
38716;BME280;24833;49.324;8.694;2022-11-20T08:45:29;99327.22;;;5.83;100.00
38716;BME280;24833;49.324;8.694;2022-11-20T08:48:04;99327.84;;;5.85;100.00
38716;BME280;24833;49.324;8.694;2022-11-20T08:50:31;99330.97;;;5.88;100.00
38716;BME280;24833;49.324;8.694;2022-11-20T08:53:06;99338.75;;;5.90;100.00
38716;BME280;24833;49.324;8.694;2022-11-20T08:55:33;99336.59;;;5.93;100.00
38716;BME280;24833;49.324;8.694;2022-11-20T08:58:06;99335.44;;;5.96;100.00
38716;BME280;24833;49.324;8.694;2022-11-20T09:00:33;99338.09;;;5.96;100.00
38716;BME280;24833;49.324;8.694;2022-11-20T09:03:01;99340.56;;;5.97;100.00
38716;BME280;24833;49.324;8.694;2022-11-20T09:05:28;99338.53;;;5.99;100.00
38716;BME280;24833;49.324;8.694;2022-11-20T09:07:59;99338.19;;;6.03;100.00
38716;BME280;24833;49.324;8.694;2022-11-20T09:10:27;99339.84;;;6.04;100.00
38716;BME280;24833;49.324;8.694;2022-11-20T09:12:55;99339.66;;;6.05;100.00
38716;BME280;24833;49.324;8.694;2022-11-20T09:15:24;99348.25;;;6.07;100.00
38716;BME280;24833;49.324;8.694;2022-11-20T09:18:01;99346.41;;;6.08;100.00
38716;BME280;24833;49.324;8.694;2022-11-20T09:20:29;99351.56;;;6.09;100.00
38716;BME280;24833;49.324;8.694;2022-11-20T09:22:57;99347.91;;;6.10;100.00
38716;BME280;24833;49.324;8.694;2022-11-20T09:25:24;99344.06;;;6.13;100.00
38716;BME280;24833;49.324;8.694;2022-11-20T09:27:58;99346.53;;;6.14;100.00
38716;BME280;24833;49.324;8.694;2022-11-20T09:30:26;99343.88;;;6.14;100.00
38716;BME280;24833;49.324;8.694;2022-11-20T09:32:54;99346.84;;;6.19;100.00
38716;BME280;24833;49.324;8.694;2022-11-20T09:35:21;99352.97;;;6.20;100.00
38716;BME280;24833;49.324;8.694;2022-11-20T09:37:48;99344.81;;;6.21;100.00
38716;BME280;24833;49.324;8.694;2022-11-20T09:46:05;99342.28;;;6.28;100.00
38716;BME280;24833;49.324;8.694;2022-11-20T09:49:00;99340.31;;;6.30;100.00
38716;BME280;24833;49.324;8.694;2022-11-20T09:51:44;99345.41;;;6.32;100.00
38716;BME280;24833;49.324;8.694;2022-11-20T09:54:19;99353.00;;;6.35;100.00
38716;BME280;24833;49.324;8.694;2022-11-20T09:56:58;99348.38;;;6.37;100.00
38716;BME280;24833;49.324;8.694;2022-11-20T09:59:42;99353.47;;;6.38;100.00
38716;BME280;24833;49.324;8.694;2022-11-20T10:04:58;99353.09;;;6.41;100.00
38716;BME280;24833;49.324;8.694;2022-11-20T10:07:40;99357.25;;;6.44;100.00
38716;BME280;24833;49.324;8.694;2022-11-20T10:10:40;99356.25;;;6.45;100.00
38716;BME280;24833;49.324;8.694;2022-11-20T10:16:36;99358.53;;;6.48;100.00
38716;BME280;24833;49.324;8.694;2022-11-20T10:23:00;99349.22;;;6.52;100.00
38716;BME280;24833;49.324;8.694;2022-11-20T10:34:49;99345.84;;;6.58;100.00
38716;BME280;24833;49.324;8.694;2022-11-20T10:37:23;99340.34;;;6.60;100.00
38716;BME280;24833;49.324;8.694;2022-11-20T10:40:18;99336.69;;;6.61;100.00
38716;BME280;24833;49.324;8.694;2022-11-20T10:50:48;99337.63;;;6.68;100.00
38716;BME280;24833;49.324;8.694;2022-11-20T11:01:46;99315.84;;;6.72;100.00
38716;BME280;24833;49.324;8.694;2022-11-20T11:04:40;99318.50;;;6.72;100.00
38716;BME280;24833;49.324;8.694;2022-11-20T11:07:23;99325.44;;;6.73;100.00
38716;BME280;24833;49.324;8.694;2022-11-20T11:09:56;99314.84;;;6.73;100.00
38716;BME280;24833;49.324;8.694;2022-11-20T11:12:26;99318.97;;;6.76;100.00
38716;BME280;24833;49.324;8.694;2022-11-20T11:14:57;99316.31;;;6.76;100.00
38716;BME280;24833;49.324;8.694;2022-11-20T11:17:32;99312.47;;;6.78;100.00
38716;BME280;24833;49.324;8.694;2022-11-20T11:20:17;99303.16;;;6.82;100.00
38716;BME280;24833;49.324;8.694;2022-11-20T11:25:36;99292.72;;;6.96;100.00
38716;BME280;24833;49.324;8.694;2022-11-20T11:28:21;99288.31;;;7.03;100.00
38716;BME280;24833;49.324;8.694;2022-11-20T11:30:48;99284.47;;;7.05;100.00
38716;BME280;24833;49.324;8.694;2022-11-20T11:33:28;99295.53;;;7.09;100.00
38716;BME280;24833;49.324;8.694;2022-11-20T11:36:01;99290.88;;;7.11;100.00
38716;BME280;24833;49.324;8.694;2022-11-20T11:41:05;99290.75;;;7.19;100.00
38716;BME280;24833;49.324;8.694;2022-11-20T11:43:35;99284.50;;;7.27;100.00
38716;BME280;24833;49.324;8.694;2022-11-20T11:46:34;99272.31;;;7.32;100.00
38716;BME280;24833;49.324;8.694;2022-11-20T11:49:15;99275.25;;;7.37;100.00
38716;BME280;24833;49.324;8.694;2022-11-20T11:55:08;99279.41;;;7.47;100.00
38716;BME280;24833;49.324;8.694;2022-11-20T12:00:53;99272.34;;;7.54;100.00
38716;BME280;24833;49.324;8.694;2022-11-20T12:03:28;99268.50;;;7.56;100.00
38716;BME280;24833;49.324;8.694;2022-11-20T12:06:04;99267.69;;;7.56;100.00
38716;BME280;24833;49.324;8.694;2022-11-20T12:08:46;99266.47;;;7.58;100.00
38716;BME280;24833;49.324;8.694;2022-11-20T12:11:32;99275.28;;;7.59;100.00
38716;BME280;24833;49.324;8.694;2022-11-20T12:14:28;99268.75;;;7.61;100.00
38716;BME280;24833;49.324;8.694;2022-11-20T12:16:58;99265.66;;;7.58;100.00
38716;BME280;24833;49.324;8.694;2022-11-20T12:19:25;99268.13;;;7.59;100.00
38716;BME280;24833;49.324;8.694;2022-11-20T12:22:41;99272.63;;;7.59;100.00
38716;BME280;24833;49.324;8.694;2022-11-20T12:25:30;99261.53;;;7.55;100.00
38716;BME280;24833;49.324;8.694;2022-11-20T12:34:31;99271.25;;;7.48;100.00
38716;BME280;24833;49.324;8.694;2022-11-20T12:37:23;99267.97;;;7.46;100.00
38716;BME280;24833;49.324;8.694;2022-11-20T12:51:35;99255.25;;;7.42;100.00
38716;BME280;24833;49.324;8.694;2022-11-20T12:54:17;99265.25;;;7.40;100.00
38716;BME280;24833;49.324;8.694;2022-11-20T12:59:33;99257.28;;;7.40;100.00
38716;BME280;24833;49.324;8.694;2022-11-20T13:08:00;99247.53;;;7.47;100.00
38716;BME280;24833;49.324;8.694;2022-11-20T13:10:43;99246.38;;;7.49;100.00
38716;BME280;24833;49.324;8.694;2022-11-20T13:16:37;99219.88;;;7.56;100.00
38716;BME280;24833;49.324;8.694;2022-11-20T13:19:13;99229.28;;;7.58;100.00
38716;BME280;24833;49.324;8.694;2022-11-20T13:21:47;99233.38;;;7.61;100.00
38716;BME280;24833;49.324;8.694;2022-11-20T13:26:47;99212.53;;;7.58;100.00
38716;BME280;24833;49.324;8.694;2022-11-20T13:29:18;99223.16;;;7.58;100.00
38716;BME280;24833;49.324;8.694;2022-11-20T13:31:47;99212.53;;;7.58;100.00
38716;BME280;24833;49.324;8.694;2022-11-20T13:34:27;99220.69;;;7.56;100.00
38716;BME280;24833;49.324;8.694;2022-11-20T13:36:57;99228.81;;;7.55;100.00
38716;BME280;24833;49.324;8.694;2022-11-20T13:39:34;99214.66;;;7.48;100.00
38716;BME280;24833;49.324;8.694;2022-11-20T13:42:20;99217.09;;;7.43;100.00
38716;BME280;24833;49.324;8.694;2022-11-20T13:45:02;99221.47;;;7.35;100.00
38716;BME280;24833;49.324;8.694;2022-11-20T13:47:35;99209.34;;;7.26;100.00
38716;BME280;24833;49.324;8.694;2022-11-20T13:50:04;99210.47;;;7.17;100.00
38716;BME280;24833;49.324;8.694;2022-11-20T13:55:43;99205.91;;;7.11;100.00
38716;BME280;24833;49.324;8.694;2022-11-20T14:01:09;99206.34;;;7.15;100.00
38716;BME280;24833;49.324;8.694;2022-11-20T14:03:38;99206.34;;;7.15;100.00
38716;BME280;24833;49.324;8.694;2022-11-20T14:06:32;99197.81;;;7.19;100.00
38716;BME280;24833;49.324;8.694;2022-11-20T14:09:03;99204.78;;;7.20;100.00
38716;BME280;24833;49.324;8.694;2022-11-20T14:11:34;99196.63;;;7.22;100.00
38716;BME280;24833;49.324;8.694;2022-11-20T14:14:15;99200.28;;;7.21;100.00
38716;BME280;24833;49.324;8.694;2022-11-20T14:16:43;99195.78;;;7.21;100.00
38716;BME280;24833;49.324;8.694;2022-11-20T14:21:55;99185.94;;;7.15;100.00
38716;BME280;24833;49.324;8.694;2022-11-20T14:24:33;99187.59;;;7.16;100.00
38716;BME280;24833;49.324;8.694;2022-11-20T14:27:00;99194.09;;;7.14;100.00
38716;BME280;24833;49.324;8.694;2022-11-20T14:29:33;99196.38;;;7.17;100.00
38716;BME280;24833;49.324;8.694;2022-11-20T14:32:01;99198.22;;;7.16;100.00
38716;BME280;24833;49.324;8.694;2022-11-20T14:34:35;99183.66;;;7.12;100.00
38716;BME280;24833;49.324;8.694;2022-11-20T14:37:06;99185.03;;;7.08;100.00
38716;BME280;24833;49.324;8.694;2022-11-20T14:39:52;99179.28;;;7.04;100.00
38716;BME280;24833;49.324;8.694;2022-11-20T14:42:28;99178.66;;;7.02;100.00
38716;BME280;24833;49.324;8.694;2022-11-20T14:44:58;99176.75;;;6.96;100.00
38716;BME280;24833;49.324;8.694;2022-11-20T14:47:29;99178.75;;;6.94;100.00
38716;BME280;24833;49.324;8.694;2022-11-20T14:49:58;99181.16;;;6.89;100.00
38716;BME280;24833;49.324;8.694;2022-11-20T14:52:27;99172.75;;;6.86;100.00
38716;BME280;24833;49.324;8.694;2022-11-20T14:54:57;99181.09;;;6.82;100.00
38716;BME280;24833;49.324;8.694;2022-11-20T14:57:34;99179.63;;;6.80;100.00
38716;BME280;24833;49.324;8.694;2022-11-20T15:02:44;99177.91;;;6.72;100.00
38716;BME280;24833;49.324;8.694;2022-11-20T15:05:11;99173.59;;;6.71;100.00
38716;BME280;24833;49.324;8.694;2022-11-20T15:07:42;99171.88;;;6.64;100.00
38716;BME280;24833;49.324;8.694;2022-11-20T15:10:27;99165.28;;;6.60;100.00
38716;BME280;24833;49.324;8.694;2022-11-20T15:12:59;99168.13;;;6.58;100.00